LFSNLFOK

Guest
Details From LFSN - Nancy Essey
To LFOK - Chalons Vatry
Flight Number -
Tags generated
Created
Modified
Stats Distance 82 nm / 153 km
Max Altitude 6,200 ft / 1,890 m
Waypoints 3
Social Downloads 0
Likes 0
Share VATSIM

Download

Looking for another format? Having issues loading an existing format? Contact us
Advertisement - Login to hide

Notes

Basic altitude profile: - Ascent Rate: 2500ft/min - Ascent Speed: 250kts - Cruise Altitude: 35000ft - Cruise Speed: 420kts - Descent Rate: 1500ft/min - Descent Speed: 250kts Options: - Use NATs: yes - Use PACOTS: yes - Use low airways: yes - Use high airways: yes

Route

LFSN SDI LFOK

ID Type Via Altitude Latitude Longitude Leg Dist Tot Dist Heading (true) Name
O LFSN APT - 0 ft / 0 m 48.69208˚ 6.23045˚ - 0 nm - Nancy Essey
SDI VOR - 6,200 ft / 1,890 m 48.63700˚ 4.88919˚ 53 nm 53 nm 267° / 266° -
O LFOK APT - 0 ft / 0 m 48.77621˚ 4.18417˚ 29 nm 82 nm 287° / 286° Chalons Vatry

Altitude Profile

Advertisement - Login to hide

LFSN

Details ICAO LFSN (ENC)
Name Nancy Essey
Region France
Timezone Europe/Paris (UTC+1.0)
Stats Elevation 751 ft / 229 m (AMSL)
Location 48.692079° 6.230454°
Runways 1
Magnetic Variation 1.720° E

METAR

LFSN 140230Z AUTO 24018G31KT 200V270 9999 RA BKN029/// BKN036/// OVC046/// ///CB 08/05 Q0997

Decode

TAF

Not found

Departure Runways

ID Width Length Bearing (true) Bearing (mag) Surface Threshold Offset Overrun Length
03 131 ft / 40 m 4,584 ft / 1,397 m 28.80° 27.08° Asphalt 0 ft / 0 m 0 ft / 0 m
21 131 ft / 40 m 4,584 ft / 1,397 m 208.81° 207.09° Asphalt 0 ft / 0 m 0 ft / 0 m

LFOK

Details ICAO LFOK (XCR)
Name Chalons Vatry
Region France
Timezone Europe/Paris (UTC+1.0)
Stats Elevation 587 ft / 179 m (AMSL)
Location 48.776207° 4.184166°
Runways 1
Magnetic Variation 1.136° E

METAR

LFOK 140230Z AUTO 27026G36KT 9999 FEW034 06/01 Q1000 NOSIG

Decode

TAF

TAF LFOK 132300Z 1400/1424 25020G30KT 9999 BKN030 TEMPO 1400/1403 25020G40KT 2000 SHRA BKN013CB PROB30 1400/1402 25030G55KT TSRA TEMPO 1410/1422 2000 SHRA BKN007 BKN013CB PROB30 TEMPO 1410/1422 TSRA

Decode

Destination Runways

ID Width Length Bearing (true) Bearing (mag) Surface Threshold Offset Overrun Length
10 148 ft / 45 m 12,632 ft / 3,850 m 101.24° 100.10° Concrete 361 ft / 110 m 0 ft / 0 m
28 148 ft / 45 m 12,632 ft / 3,850 m 281.28° 280.14° Concrete 361 ft / 110 m 0 ft / 0 m

Approach Navaids

Runway Type Ident Frequency Range Bearing (true) Bearing (mag) Slope Elevation
10 Localiser CVD 111.30 MHz 18 nm / 33 km 101.28° 100.14° - 587 ft / 179 m (AMSL)
10 Glidescope CVD 111.30 MHz 10 nm / 19 km 101.26° 100.12° 3.00° 613 ft / 187 m (AMSL)
10 DME CVD 111.30 MHz 18 nm / 33 km - - - 587 ft / 179 m (AMSL)
28 Localiser CVL 109.55 MHz 18 nm / 33 km 281.23° 280.10° - 587 ft / 179 m (AMSL)
28 Glidescope CVL 109.55 MHz 10 nm / 19 km 281.26° 280.12° 3.00° 637 ft / 194 m (AMSL)
28 DME CVL 109.55 MHz 18 nm / 33 km - - - 587 ft / 179 m (AMSL)